Time;durP1;ratioP1;P1;durP2;ratioP2;P2;SDS_P1;SDS_P2;PMS_P1;PMS_P2;Temp;Humidity;BMP_temperature;BMP_pressure;BME280_temperature;BME280_humidity;BME280_pressure;Samples;Min_cycle;Max_cycle;Signal;HPM_P1;HPM_P2
2023/01/31 00:01:25;;;;;;;16.52;2.83;;;4.00;99.90;;;;;;5110249;28;20035;-83
2023/01/31 00:03:56;;;;;;;18.10;2.65;;;4.10;99.90;;;;;;5109484;28;20093;-83
2023/01/31 00:06:29;;;;;;;14.18;3.13;;;3.90;99.90;;;;;;5109520;28;20039;-83
2023/01/31 00:08:57;;;;;;;23.33;3.47;;;3.80;99.90;;;;;;5126362;28;20079;-83
2023/01/31 00:11:26;;;;;;;22.58;3.08;;;4.10;99.90;;;;;;5109800;28;20469;-83
2023/01/31 00:13:53;;;;;;;14.90;2.80;;;3.80;99.90;;;;;;5125993;28;20059;-83
2023/01/31 00:16:21;;;;;;;26.45;3.60;;;4.10;99.90;;;;;;5109685;28;20093;-82
2023/01/31 00:18:48;;;;;;;18.10;2.72;;;3.70;99.90;;;;;;5126209;28;20124;-82
2023/01/31 00:21:17;;;;;;;17.67;2.28;;;3.60;99.90;;;;;;5109595;28;20032;-82
2023/01/31 00:23:46;;;;;;;26.85;3.10;;;3.60;99.90;;;;;;5126584;28;20032;-82
2023/01/31 00:26:14;;;;;;;19.30;2.85;;;3.50;99.90;;;;;;5109261;28;20044;-82
2023/01/31 00:28:42;;;;;;;15.05;3.35;;;3.50;99.90;;;;;;5126134;28;20044;-82
2023/01/31 00:31:10;;;;;;;22.00;2.78;;;3.50;99.90;;;;;;5126205;28;20050;-83
2023/01/31 00:33:38;;;;;;;21.90;3.47;;;3.60;99.90;;;;;;5109930;28;20051;-83
2023/01/31 00:36:07;;;;;;;22.15;3.70;;;3.70;99.90;;;;;;5126117;28;20036;-83
2023/01/31 00:38:34;;;;;;;15.70;3.20;;;3.40;99.90;;;;;;5109073;28;20040;-81
2023/01/31 00:41:03;;;;;;;20.52;3.78;;;3.40;99.90;;;;;;5125836;28;20032;-83
2023/01/31 00:43:31;;;;;;;20.63;3.22;;;3.40;99.90;;;;;;5126103;28;20044;-83
2023/01/31 00:45:58;;;;;;;16.35;2.35;;;3.40;99.90;;;;;;5108856;28;20032;-83
2023/01/31 00:48:25;;;;;;;16.00;2.53;;;3.30;99.90;;;;;;5109410;28;20134;-82
2023/01/31 00:50:52;;;;;;;18.23;2.60;;;3.30;99.90;;;;;;5109307;28;20039;-82
2023/01/31 00:53:22;;;;;;;17.45;2.25;;;3.30;99.90;;;;;;5125885;28;20040;-82
2023/01/31 00:55:53;;;;;;;18.23;2.75;;;3.90;99.90;;;;;;5108957;28;20040;-83
2023/01/31 00:58:20;;;;;;;17.73;3.75;;;3.30;99.90;;;;;;5109160;28;20035;-82
2023/01/31 01:00:47;;;;;;;14.07;2.92;;;3.20;99.90;;;;;;5142462;28;20527;-83
2023/01/31 01:03:14;;;;;;;19.85;2.60;;;3.50;99.90;;;;;;5142145;28;20132;-82
2023/01/31 01:05:41;;;;;;;15.00;2.05;;;3.40;99.90;;;;;;5125481;28;20486;-82
2023/01/31 01:08:10;;;;;;;20.60;3.80;;;3.70;99.90;;;;;;5109144;28;20044;-83
2023/01/31 01:10:37;;;;;;;15.02;2.53;;;3.10;99.90;;;;;;5125763;28;20044;-82
2023/01/31 01:13:07;;;;;;;21.25;2.95;;;3.60;99.90;;;;;;5108344;28;20056;-83
2023/01/31 01:15:37;;;;;;;27.70;2.75;;;3.40;99.90;;;;;;5125470;28;20052;-83
2023/01/31 01:18:04;;;;;;;17.40;2.10;;;3.60;99.90;;;;;;5125161;28;20154;-82
2023/01/31 01:20:33;;;;;;;14.02;2.28;;;3.90;99.90;;;;;;5125397;28;20127;-83
2023/01/31 01:22:59;;;;;;;18.67;2.75;;;3.30;99.90;;;;;;5108344;28;20036;-83
2023/01/31 01:25:26;;;;;;;25.92;2.20;;;3.30;99.90;;;;;;5125485;28;20047;-82
2023/01/31 01:27:53;;;;;;;14.65;2.30;;;3.80;99.90;;;;;;5125660;28;20032;-83
2023/01/31 01:30:20;;;;;;;16.85;3.22;;;3.30;99.90;;;;;;5091548;28;20036;-83
2023/01/31 01:32:47;;;;;;;20.38;2.95;;;3.60;99.90;;;;;;5108897;28;20055;-82
2023/01/31 01:35:14;;;;;;;18.42;3.42;;;3.20;99.90;;;;;;5125210;28;20096;-83
2023/01/31 01:37:40;;;;;;;16.33;2.38;;;3.10;99.90;;;;;;5127494;28;20127;-83
2023/01/31 01:40:08;;;;;;;26.17;3.08;;;3.10;99.90;;;;;;5129145;28;20458;-82
2023/01/31 01:42:35;;;;;;;26.80;3.50;;;3.10;99.90;;;;;;5112080;28;20036;-83
2023/01/31 01:45:14;;;;;;;14.57;2.38;;;3.00;99.90;;;;;;5112012;28;20111;-83
2023/01/31 01:47:55;;;;;;;17.15;2.30;;;3.00;99.90;;;;;;5112774;28;20078;-83
2023/01/31 01:50:29;;;;;;;14.88;1.98;;;3.00;99.90;;;;;;5129078;28;20071;-82
2023/01/31 01:53:05;;;;;;;20.95;2.85;;;3.00;99.90;;;;;;5129385;28;20040;-83
2023/01/31 01:56:01;;;;;;;27.40;2.70;;;3.00;99.90;;;;;;5112638;28;20082;-83
2023/01/31 01:58:53;;;;;;;22.60;3.75;;;3.00;99.90;;;;;;5097440;28;20040;-83
2023/01/31 02:01:20;;;;;;;19.35;2.53;;;2.90;99.90;;;;;;5129032;28;20098;-83
2023/01/31 02:03:50;;;;;;;15.75;2.15;;;2.90;99.90;;;;;;5129061;28;20101;-82
2023/01/31 02:06:17;;;;;;;18.23;2.78;;;3.10;99.90;;;;;;5128579;28;20041;-83
2023/01/31 02:08:44;;;;;;;15.15;2.33;;;3.60;99.90;;;;;;5128935;28;20043;-83
2023/01/31 02:11:22;;;;;;;14.90;2.38;;;3.10;99.90;;;;;;5128484;28;20511;-82
2023/01/31 02:13:58;;;;;;;13.10;2.03;;;2.90;99.90;;;;;;5128729;28;20052;-83
2023/01/31 02:16:25;;;;;;;12.80;2.97;;;2.90;99.90;;;;;;5111918;28;20484;-83
2023/01/31 02:18:52;;;;;;;21.75;2.50;;;2.90;99.90;;;;;;5128574;28;20079;-83
2023/01/31 02:21:37;;;;;;;13.93;2.00;;;2.90;99.90;;;;;;5111512;28;20507;-82
2023/01/31 02:24:26;;;;;;;15.38;2.30;;;3.00;99.90;;;;;;5128523;28;20032;-83
2023/01/31 02:27:11;;;;;;;15.32;2.92;;;2.90;99.90;;;;;;5128467;28;20041;-83
2023/01/31 02:30:15;;;;;;;13.20;2.65;;;3.00;99.90;;;;;;5128765;28;20044;-83
2023/01/31 02:33:11;;;;;;;18.67;2.00;;;3.00;99.90;;;;;;5128430;28;20825;-83
2023/01/31 02:35:55;;;;;;;18.70;2.60;;;3.10;99.90;;;;;;5128650;28;20106;-83
2023/01/31 02:38:41;;;;;;;20.88;2.05;;;3.20;99.90;;;;;;5128047;28;20485;-82
2023/01/31 02:41:28;;;;;;;22.17;3.05;;;3.20;99.90;;;;;;5128326;28;20052;-81
2023/01/31 02:47:32;;;;;;;14.02;2.03;;;3.30;99.90;;;;;;5144709;28;20044;-83
2023/01/31 02:50:11;;;;;;;17.60;2.70;;;3.30;99.90;;;;;;5128210;28;20404;-82
2023/01/31 02:52:54;;;;;;;19.30;2.47;;;3.30;99.90;;;;;;5128135;28;20051;-82
2023/01/31 02:58:35;;;;;;;19.92;3.47;;;3.30;99.90;;;;;;5144733;28;20105;-83
2023/01/31 03:01:03;;;;;;;13.60;3.08;;;3.30;99.90;;;;;;5110902;28;20044;-83
2023/01/31 03:03:38;;;;;;;21.90;2.22;;;3.30;99.90;;;;;;5094180;28;20032;-82
2023/01/31 03:06:22;;;;;;;14.02;1.95;;;3.30;99.90;;;;;;5110785;28;20036;-83
2023/01/31 03:09:06;;;;;;;18.08;2.80;;;3.30;99.90;;;;;;5128032;28;20131;-83
2023/01/31 03:12:11;;;;;;;10.48;2.15;;;3.30;99.90;;;;;;5127512;28;20438;-83
2023/01/31 03:15:14;;;;;;;16.95;1.98;;;3.30;99.90;;;;;;5127223;28;20064;-82
2023/01/31 03:17:43;;;;;;;18.77;2.22;;;3.30;99.90;;;;;;5127227;28;20419;-83
2023/01/31 03:20:17;;;;;;;12.15;2.10;;;3.30;99.90;;;;;;5127714;28;20044;-83
2023/01/31 03:22:58;;;;;;;9.80;1.85;;;3.30;99.90;;;;;;5127385;28;20118;-83
2023/01/31 03:25:29;;;;;;;12.10;2.50;;;3.50;99.90;;;;;;5110173;28;20518;-82
2023/01/31 03:28:00;;;;;;;18.45;2.17;;;3.20;99.90;;;;;;5110857;28;20036;-82
2023/01/31 03:30:38;;;;;;;12.90;1.80;;;3.40;99.90;;;;;;5110388;28;20543;-82
2023/01/31 03:33:13;;;;;;;18.77;2.53;;;3.30;99.90;;;;;;5127822;28;20051;-82
2023/01/31 03:35:44;;;;;;;15.63;2.60;;;3.80;99.90;;;;;;5110297;28;20481;-83
2023/01/31 03:38:19;;;;;;;13.85;2.45;;;3.20;99.90;;;;;;5127334;28;20040;-83
2023/01/31 03:41:00;;;;;;;17.17;2.20;;;3.20;99.90;;;;;;5144452;28;20042;-83
2023/01/31 03:43:45;;;;;;;17.75;1.95;;;3.30;99.90;;;;;;5126830;28;20044;-82
2023/01/31 03:46:19;;;;;;;18.02;2.22;;;3.30;99.90;;;;;;5126775;28;20040;-83
2023/01/31 03:48:50;;;;;;;14.93;2.05;;;3.70;99.90;;;;;;5110212;28;20408;-83
2023/01/31 03:51:22;;;;;;;13.35;2.25;;;3.30;99.90;;;;;;5110317;28;20044;-82
2023/01/31 03:53:57;;;;;;;13.40;1.60;;;3.30;99.90;;;;;;5110388;28;20040;-82
2023/01/31 03:56:42;;;;;;;12.10;2.03;;;3.40;99.90;;;;;;5126295;28;20048;-82
2023/01/31 03:59:13;;;;;;;18.02;2.20;;;3.40;99.90;;;;;;5110157;28;20032;-83
2023/01/31 04:01:47;;;;;;;17.63;2.75;;;3.40;99.90;;;;;;5109718;28;20047;-83
2023/01/31 04:04:20;;;;;;;13.15;2.00;;;3.40;99.90;;;;;;5109887;28;20032;-83
2023/01/31 04:06:47;;;;;;;19.98;1.98;;;3.50;99.90;;;;;;5109522;28;20729;-82
2023/01/31 04:09:14;;;;;;;10.98;2.10;;;3.50;99.90;;;;;;5092886;28;20047;-82
2023/01/31 04:11:46;;;;;;;12.90;2.03;;;3.70;99.90;;;;;;5109415;28;20122;-83
2023/01/31 04:14:14;;;;;;;15.73;1.90;;;3.60;99.90;;;;;;5126049;28;20097;-83
2023/01/31 04:16:41;;;;;;;15.80;2.42;;;3.60;99.90;;;;;;5109165;28;20044;-83
2023/01/31 04:19:07;;;;;;;17.58;2.15;;;3.60;99.90;;;;;;5126174;28;20040;-83
2023/01/31 04:21:37;;;;;;;9.63;1.98;;;4.10;99.90;;;;;;5109366;28;20066;-83
2023/01/31 04:24:04;;;;;;;12.90;2.00;;;3.60;99.90;;;;;;5126033;28;20043;-82
2023/01/31 04:26:30;;;;;;;20.30;4.00;;;3.70;99.90;;;;;;5108978;28;20400;-83
2023/01/31 04:28:57;;;;;;;13.30;1.98;;;3.70;99.90;;;;;;5126207;28;20582;-82
2023/01/31 04:31:24;;;;;;;16.88;2.38;;;3.70;99.90;;;;;;5126014;28;20048;-83
2023/01/31 04:33:50;;;;;;;20.63;2.17;;;3.70;99.90;;;;;;5109419;28;20040;-83
2023/01/31 04:36:17;;;;;;;15.57;2.22;;;3.70;99.90;;;;;;5109367;28;20408;-83
2023/01/31 04:38:44;;;;;;;15.15;2.28;;;3.80;99.90;;;;;;5125549;28;20704;-83
2023/01/31 04:41:10;;;;;;;22.42;2.88;;;4.00;99.90;;;;;;5126145;28;20040;-83
2023/01/31 04:43:37;;;;;;;17.25;2.72;;;3.80;99.90;;;;;;5125469;28;20040;-83
2023/01/31 04:46:04;;;;;;;14.32;2.42;;;3.90;99.90;;;;;;5109066;28;20038;-82
2023/01/31 04:48:30;;;;;;;19.35;2.00;;;3.90;99.90;;;;;;5108484;28;20044;-83
2023/01/31 04:50:57;;;;;;;12.30;1.92;;;3.90;99.90;;;;;;5125791;28;20047;-82
2023/01/31 04:53:24;;;;;;;13.43;2.10;;;3.90;99.90;;;;;;5125753;28;20515;-82
2023/01/31 04:55:54;;;;;;;9.88;2.40;;;3.90;99.90;;;;;;5125845;28;20592;-83
2023/01/31 04:58:21;;;;;;;13.25;2.15;;;3.90;99.90;;;;;;5125545;28;20078;-83
2023/01/31 05:00:48;;;;;;;17.13;2.67;;;3.90;99.90;;;;;;5108372;28;20036;-83
2023/01/31 05:03:15;;;;;;;15.27;2.53;;;3.90;99.90;;;;;;5108961;28;20400;-82
2023/01/31 05:05:42;;;;;;;11.90;2.20;;;3.90;99.90;;;;;;5125324;28;20040;-83
2023/01/31 05:08:08;;;;;;;15.50;3.03;;;4.50;99.90;;;;;;5108900;28;20137;-82
2023/01/31 05:10:35;;;;;;;15.05;2.60;;;4.20;99.90;;;;;;5108148;28;20032;-83
2023/01/31 05:13:02;;;;;;;14.52;3.40;;;4.00;99.90;;;;;;5124915;28;20056;-83
2023/01/31 05:15:29;;;;;;;27.38;3.50;;;4.00;99.90;;;;;;5125323;28;20109;-82
2023/01/31 05:18:01;;;;;;;16.58;2.72;;;4.10;99.90;;;;;;5125676;28;20036;-83
2023/01/31 05:20:35;;;;;;;18.75;2.65;;;4.10;99.90;;;;;;5125374;28;20047;-81
2023/01/31 05:23:02;;;;;;;16.63;2.28;;;4.00;99.90;;;;;;5108477;28;20058;-83
2023/01/31 05:25:29;;;;;;;11.25;2.42;;;4.00;99.90;;;;;;5108791;28;20476;-81
2023/01/31 05:27:56;;;;;;;13.77;2.58;;;4.00;99.90;;;;;;5125561;28;20809;-83
2023/01/31 05:30:23;;;;;;;14.38;3.53;;;4.10;99.90;;;;;;5108457;28;20161;-83
2023/01/31 05:32:50;;;;;;;21.08;3.05;;;4.10;99.90;;;;;;5108522;28;20036;-83
2023/01/31 05:35:17;;;;;;;20.85;2.67;;;4.00;99.90;;;;;;5108611;28;20036;-83
2023/01/31 05:37:44;;;;;;;13.27;2.30;;;4.10;99.90;;;;;;5125483;28;20125;-83
2023/01/31 05:40:16;;;;;;;15.45;2.80;;;4.10;99.90;;;;;;5125500;28;20412;-83
2023/01/31 05:42:43;;;;;;;13.07;2.55;;;4.10;99.90;;;;;;5108230;28;20036;-83
2023/01/31 05:45:10;;;;;;;16.83;2.60;;;4.10;99.90;;;;;;5108724;28;20047;-82
2023/01/31 05:47:37;;;;;;;19.00;3.25;;;4.10;99.90;;;;;;5125103;28;20040;-83
2023/01/31 05:50:04;;;;;;;16.98;2.75;;;4.20;99.90;;;;;;5108180;28;20039;-83
2023/01/31 05:52:31;;;;;;;21.83;3.00;;;4.20;99.90;;;;;;5125336;28;20036;-83
2023/01/31 05:54:58;;;;;;;20.15;2.70;;;4.20;99.90;;;;;;5108418;28;20138;-82
2023/01/31 05:57:24;;;;;;;13.75;3.25;;;4.20;99.90;;;;;;5108511;28;20089;-83
2023/01/31 05:59:51;;;;;;;18.75;3.50;;;4.20;99.90;;;;;;5108123;28;20047;-83
2023/01/31 06:02:21;;;;;;;21.48;3.10;;;4.20;99.90;;;;;;5125252;28;20093;-83
2023/01/31 06:04:48;;;;;;;20.23;3.15;;;4.30;99.90;;;;;;5124790;28;20143;-82
2023/01/31 06:07:15;;;;;;;22.15;3.30;;;4.30;99.90;;;;;;5108224;28;20127;-83
2023/01/31 06:09:41;;;;;;;13.55;3.28;;;4.30;99.90;;;;;;5125306;28;20860;-82
2023/01/31 06:12:13;;;;;;;18.80;3.17;;;4.30;99.90;;;;;;5124947;28;20044;-83
2023/01/31 06:14:40;;;;;;;20.95;3.60;;;4.30;99.90;;;;;;5124195;28;20051;-83
2023/01/31 06:17:09;;;;;;;19.73;2.60;;;4.40;99.90;;;;;;5091529;28;20859;-82
2023/01/31 06:19:36;;;;;;;20.73;3.30;;;4.30;99.90;;;;;;5108421;28;20517;-82
2023/01/31 06:22:04;;;;;;;19.08;3.20;;;4.90;99.90;;;;;;5091129;28;20072;-83
2023/01/31 06:24:31;;;;;;;23.48;3.63;;;4.40;99.90;;;;;;5128319;28;20040;-83
2023/01/31 06:26:57;;;;;;;16.48;2.78;;;4.40;99.90;;;;;;5112652;28;20048;-83
2023/01/31 06:29:24;;;;;;;17.75;3.17;;;4.40;99.90;;;;;;5128765;28;20043;-82
2023/01/31 06:31:52;;;;;;;25.25;4.80;;;4.40;99.90;;;;;;5111455;28;20079;-83
2023/01/31 06:34:19;;;;;;;20.52;3.45;;;4.40;99.90;;;;;;5111787;28;20044;-83
2023/01/31 06:36:46;;;;;;;27.10;3.65;;;4.40;99.90;;;;;;5125048;28;20135;-83
2023/01/31 06:39:13;;;;;;;20.35;3.20;;;4.50;99.90;;;;;;5122940;28;20127;-83
2023/01/31 06:41:40;;;;;;;19.23;3.20;;;4.50;99.90;;;;;;5100574;28;20040;-82
2023/01/31 06:44:07;;;;;;;26.80;3.55;;;4.50;99.90;;;;;;5087536;28;20045;-83
2023/01/31 06:46:34;;;;;;;17.25;2.95;;;4.50;99.90;;;;;;5102345;28;20028;-82
2023/01/31 06:49:01;;;;;;;20.15;3.45;;;4.60;99.90;;;;;;5101813;28;20036;-83
2023/01/31 06:51:27;;;;;;;19.02;3.40;;;4.60;99.90;;;;;;5098649;28;20036;-82
2023/01/31 06:53:55;;;;;;;23.70;3.30;;;4.60;99.90;;;;;;5106626;28;20093;-83
2023/01/31 06:56:22;;;;;;;18.95;3.13;;;4.70;99.90;;;;;;5097176;28;20042;-83
2023/01/31 06:58:49;;;;;;;12.90;2.45;;;4.70;99.90;;;;;;5088982;28;20035;-82
2023/01/31 07:01:16;;;;;;;13.90;2.80;;;5.00;99.90;;;;;;5099473;28;20077;-83
2023/01/31 07:03:43;;;;;;;27.73;3.63;;;4.80;99.90;;;;;;5122595;28;20489;-82
2023/01/31 07:06:09;;;;;;;21.83;3.50;;;4.90;99.90;;;;;;5117721;28;20031;-83
2023/01/31 07:08:36;;;;;;;20.90;3.22;;;4.80;99.90;;;;;;5125385;28;20522;-83
2023/01/31 07:11:04;;;;;;;18.83;3.75;;;5.00;99.90;;;;;;5116719;28;20047;-83
2023/01/31 07:13:31;;;;;;;16.15;3.20;;;5.00;99.90;;;;;;5116539;28;20197;-83
2023/01/31 07:15:58;;;;;;;10.77;2.78;;;5.00;99.90;;;;;;5124528;28;20057;-83
2023/01/31 07:18:24;;;;;;;17.05;2.78;;;5.00;99.90;;;;;;5118752;28;20533;-83
2023/01/31 07:20:51;;;;;;;7.38;2.10;;;5.00;99.90;;;;;;5102129;28;20412;-83
2023/01/31 07:23:18;;;;;;;9.27;2.67;;;5.10;99.90;;;;;;5122373;28;20038;-83
2023/01/31 07:25:45;;;;;;;8.30;1.75;;;5.10;99.90;;;;;;5122306;28;20043;-81
2023/01/31 07:28:14;;;;;;;14.50;2.40;;;5.30;99.90;;;;;;5099393;28;20032;-83
2023/01/31 07:30:42;;;;;;;9.70;2.78;;;5.10;99.90;;;;;;5096278;28;20045;-84
2023/01/31 07:33:12;;;;;;;14.80;2.38;;;5.10;99.90;;;;;;5104250;28;20066;-84
2023/01/31 07:35:44;;;;;;;15.70;2.03;;;5.40;99.90;;;;;;5128590;28;20040;-82
2023/01/31 07:38:10;;;;;;;8.82;2.42;;;5.20;99.90;;;;;;5097219;28;20033;-83
2023/01/31 07:40:38;;;;;;;18.35;2.40;;;5.20;99.90;;;;;;5098050;28;20496;-83
2023/01/31 07:43:05;;;;;;;10.25;1.58;;;5.20;99.90;;;;;;5114740;28;20116;-83
2023/01/31 07:45:32;;;;;;;9.55;1.88;;;5.20;99.90;;;;;;5116042;28;20118;-83
2023/01/31 07:47:59;;;;;;;13.65;2.20;;;5.40;99.90;;;;;;5110046;28;20126;-83
2023/01/31 07:50:26;;;;;;;16.63;1.85;;;5.30;99.90;;;;;;5106483;28;20118;-83
2023/01/31 07:52:53;;;;;;;14.73;2.50;;;5.30;99.90;;;;;;5117778;28;20036;-82
2023/01/31 07:55:20;;;;;;;9.00;2.25;;;5.30;99.90;;;;;;5118050;28;20039;-84
2023/01/31 07:57:46;;;;;;;10.85;2.38;;;5.30;99.90;;;;;;5103894;28;20032;-86
2023/01/31 08:05:47;;;;;;;7.85;1.55;;;5.30;99.90;;;;;;5125949;28;20094;-83
2023/01/31 08:08:14;;;;;;;11.27;1.70;;;5.40;99.90;;;;;;5125381;28;20085;-83
2023/01/31 08:10:40;;;;;;;13.55;1.70;;;5.40;99.90;;;;;;5104013;28;20508;-85
2023/01/31 08:13:09;;;;;;;20.52;2.33;;;5.50;99.90;;;;;;5091592;28;20109;-84
2023/01/31 08:15:36;;;;;;;11.00;3.00;;;5.40;99.90;;;;;;5101834;28;20048;-84
2023/01/31 08:18:03;;;;;;;7.82;2.22;;;5.50;99.90;;;;;;5094352;28;20496;-83
2023/01/31 08:20:30;;;;;;;11.48;2.90;;;5.50;99.90;;;;;;5092466;28;20052;-84
2023/01/31 08:22:58;;;;;;;6.45;1.88;;;5.50;99.90;;;;;;5108629;28;20043;-83
2023/01/31 08:25:27;;;;;;;6.85;1.95;;;5.50;99.90;;;;;;5117298;28;20237;-84
2023/01/31 08:27:56;;;;;;;8.93;2.65;;;5.50;99.90;;;;;;5094617;28;20068;-83
2023/01/31 08:30:23;;;;;;;9.90;1.88;;;5.50;99.90;;;;;;5133901;28;20040;-84
2023/01/31 08:32:50;;;;;;;12.70;2.15;;;5.60;99.90;;;;;;5090578;28;20055;-84
2023/01/31 08:35:17;;;;;;;13.70;2.58;;;5.70;99.90;;;;;;5118830;28;20040;-84
2023/01/31 08:37:43;;;;;;;8.05;1.65;;;5.60;99.90;;;;;;5073050;28;20068;-84
2023/01/31 08:40:11;;;;;;;13.13;2.75;;;5.70;99.90;;;;;;5119614;28;20040;-85
2023/01/31 08:42:37;;;;;;;7.25;1.85;;;5.70;99.90;;;;;;5108547;28;20131;-83
2023/01/31 08:45:06;;;;;;;11.38;1.83;;;5.70;99.90;;;;;;5109727;28;20127;-84
2023/01/31 08:47:33;;;;;;;5.05;1.30;;;5.70;99.90;;;;;;5088635;28;20033;-84
2023/01/31 08:49:59;;;;;;;7.43;1.63;;;5.70;99.90;;;;;;5105016;28;20047;-84
2023/01/31 08:52:26;;;;;;;9.18;1.35;;;5.80;99.90;;;;;;5140015;28;20044;-84
2023/01/31 08:54:53;;;;;;;6.82;1.48;;;5.80;99.90;;;;;;5091833;28;20048;-84
2023/01/31 08:57:19;;;;;;;10.60;1.73;;;5.80;99.90;;;;;;5105591;28;20101;-84
2023/01/31 08:59:46;;;;;;;13.07;1.83;;;5.90;99.90;;;;;;5111192;28;20067;-84
2023/01/31 09:02:13;;;;;;;4.68;1.52;;;5.90;99.90;;;;;;5108713;28;20043;-84
2023/01/31 09:04:40;;;;;;;7.05;2.03;;;5.90;99.90;;;;;;5101362;28;20066;-84
2023/01/31 09:07:06;;;;;;;7.50;1.65;;;5.90;99.90;;;;;;5074510;28;20081;-84
2023/01/31 09:09:33;;;;;;;12.13;2.13;;;5.90;99.90;;;;;;5097047;28;20040;-84
2023/01/31 09:12:00;;;;;;;5.80;1.50;;;5.90;99.90;;;;;;5115611;28;20041;-83
2023/01/31 09:14:27;;;;;;;8.65;1.98;;;5.90;99.90;;;;;;5105000;28;20413;-85
2023/01/31 09:16:54;;;;;;;5.63;1.40;;;5.90;99.90;;;;;;5096448;28;20114;-84
2023/01/31 09:19:22;;;;;;;11.60;1.63;;;5.90;99.90;;;;;;5087720;28;20076;-85
2023/01/31 09:21:49;;;;;;;11.38;1.65;;;5.90;99.90;;;;;;5088441;28;20099;-84
2023/01/31 09:24:15;;;;;;;8.30;1.92;;;6.00;99.90;;;;;;5071790;28;20044;-83
2023/01/31 09:26:42;;;;;;;7.93;1.70;;;6.00;99.90;;;;;;5100034;28;20052;-85
2023/01/31 09:29:09;;;;;;;9.93;2.25;;;6.00;99.90;;;;;;5107736;28;20032;-84
2023/01/31 09:31:35;;;;;;;10.05;1.38;;;6.10;99.90;;;;;;5108572;28;20041;-84
2023/01/31 09:34:02;;;;;;;16.85;1.75;;;6.10;99.90;;;;;;5124397;28;20032;-85
2023/01/31 09:36:29;;;;;;;4.18;1.23;;;6.10;99.90;;;;;;5107933;28;20047;-85
2023/01/31 09:38:56;;;;;;;9.25;1.52;;;6.20;99.90;;;;;;5108084;28;20063;-86
2023/01/31 09:41:36;;;;;;;7.10;1.63;;;6.20;99.90;;;;;;5091098;28;20389;-84
2023/01/31 09:44:09;;;;;;;12.07;1.77;;;6.10;99.90;;;;;;5108012;28;20506;-85
2023/01/31 09:46:41;;;;;;;7.55;1.42;;;6.10;99.90;;;;;;5125072;28;20040;-84
2023/01/31 09:49:17;;;;;;;7.15;1.75;;;6.10;99.90;;;;;;5107794;28;20048;-85
2023/01/31 09:51:49;;;;;;;8.30;2.25;;;6.10;99.90;;;;;;5108065;28;20054;-85
2023/01/31 09:54:26;;;;;;;9.45;1.50;;;6.10;99.90;;;;;;5108006;28;20036;-84
2023/01/31 09:57:22;;;;;;;8.25;1.40;;;6.10;99.90;;;;;;5108031;28;20043;-85
2023/01/31 09:59:57;;;;;;;7.78;1.70;;;6.10;99.90;;;;;;5109318;28;20078;-84
2023/01/31 10:02:26;;;;;;;11.30;1.40;;;6.10;99.90;;;;;;5110719;28;20045;-85
2023/01/31 10:05:18;;;;;;;8.52;1.63;;;6.10;99.90;;;;;;5115846;28;20056;-85
2023/01/31 10:07:51;;;;;;;6.72;1.30;;;6.10;99.90;;;;;;5099321;28;20047;-83
2023/01/31 10:10:57;;;;;;;6.30;1.58;;;6.10;99.90;;;;;;5115443;28;20044;-83
2023/01/31 10:13:35;;;;;;;8.60;2.03;;;6.20;99.90;;;;;;5134473;28;20484;-83
2023/01/31 10:16:17;;;;;;;6.88;2.47;;;6.20;99.90;;;;;;5106436;28;20051;-83
2023/01/31 10:18:52;;;;;;;11.52;1.83;;;6.20;99.90;;;;;;5122098;28;20044;-84
2023/01/31 10:21:24;;;;;;;9.50;2.03;;;6.30;99.90;;;;;;5108478;28;20036;-84
2023/01/31 10:24:22;;;;;;;10.27;1.48;;;6.30;99.90;;;;;;5128332;28;20051;-84
2023/01/31 10:26:53;;;;;;;6.72;1.50;;;6.30;99.90;;;;;;5128759;28;20047;-85
2023/01/31 10:29:27;;;;;;;11.68;1.88;;;6.40;99.90;;;;;;5105643;28;20123;-85
2023/01/31 10:32:18;;;;;;;5.07;1.10;;;6.30;99.90;;;;;;5091566;28;20127;-85
2023/01/31 10:34:58;;;;;;;5.13;1.52;;;6.40;99.90;;;;;;5105429;28;20040;-85
2023/01/31 10:37:49;;;;;;;4.38;1.60;;;6.40;99.90;;;;;;5111046;28;20113;-85
2023/01/31 10:40:23;;;;;;;7.50;1.52;;;6.40;99.90;;;;;;5101719;28;20076;-85
2023/01/31 10:42:56;;;;;;;11.32;1.90;;;6.40;99.90;;;;;;5108056;28;20560;-84
2023/01/31 10:45:32;;;;;;;8.90;2.00;;;6.40;99.90;;;;;;5107647;28;20103;-84
2023/01/31 10:48:16;;;;;;;8.75;2.30;;;6.40;99.90;;;;;;5101220;28;20043;-86
2023/01/31 10:51:08;;;;;;;6.82;1.40;;;6.40;99.90;;;;;;5102400;28;20123;-85
2023/01/31 10:54:11;;;;;;;7.68;1.67;;;6.50;99.90;;;;;;5121757;28;20755;-85
2023/01/31 10:56:43;;;;;;;12.48;1.85;;;6.50;99.90;;;;;;5118923;28;20072;-84
2023/01/31 10:59:21;;;;;;;7.90;1.65;;;6.40;99.90;;;;;;5143981;28;20500;-86
2023/01/31 11:01:48;;;;;;;8.25;1.30;;;6.40;99.90;;;;;;5092126;28;20094;-83
2023/01/31 11:04:37;;;;;;;8.77;1.50;;;6.40;99.90;;;;;;5127031;28;20036;-82
2023/01/31 11:07:05;;;;;;;8.75;2.00;;;6.40;99.90;;;;;;5105698;28;20074;-84
2023/01/31 11:09:35;;;;;;;11.18;1.70;;;6.40;99.90;;;;;;5072531;28;20116;-84
2023/01/31 11:12:05;;;;;;;4.40;1.80;;;6.30;99.90;;;;;;5116327;28;20040;-82
2023/01/31 11:14:32;;;;;;;7.32;1.70;;;6.30;99.90;;;;;;5111098;28;20182;-85
2023/01/31 11:17:19;;;;;;;5.15;1.40;;;6.30;99.90;;;;;;5126268;28;20044;-83
2023/01/31 11:19:47;;;;;;;10.48;1.40;;;6.30;99.90;;;;;;5109760;28;20040;-82
2023/01/31 11:22:45;;;;;;;7.40;1.50;;;6.30;99.90;;;;;;5123533;28;20032;-83
2023/01/31 11:25:20;;;;;;;8.07;2.28;;;6.30;99.90;;;;;;5125284;28;20408;-82
2023/01/31 11:27:48;;;;;;;9.00;1.50;;;6.30;99.90;;;;;;5107750;28;20036;-83
2023/01/31 11:30:27;;;;;;;7.57;1.80;;;6.30;99.90;;;;;;5121428;28;20044;-83
2023/01/31 11:32:54;;;;;;;6.45;1.55;;;6.30;99.90;;;;;;5122230;28;20429;-83
2023/01/31 11:35:32;;;;;;;8.13;1.27;;;6.30;99.90;;;;;;5116775;28;20082;-84
2023/01/31 11:38:20;;;;;;;11.93;1.33;;;6.30;99.90;;;;;;5115505;28;20048;-83
2023/01/31 11:40:47;;;;;;;7.53;1.50;;;6.30;99.90;;;;;;5107778;28;20043;-82
2023/01/31 11:43:23;;;;;;;6.10;1.50;;;6.30;99.90;;;;;;5111448;28;20031;-83
2023/01/31 11:45:57;;;;;;;;;;;6.30;99.90;;;;;;5113651;28;20052;-84
2023/01/31 11:48:41;;;;;;;6.55;1.83;;;6.30;99.90;;;;;;5093561;28;19916;-83
2023/01/31 11:51:10;;;;;;;7.30;1.45;;;6.30;99.90;;;;;;5103360;28;20040;-82
2023/01/31 11:53:48;;;;;;;4.68;1.17;;;6.30;99.90;;;;;;5099957;28;20544;-81
2023/01/31 11:56:19;;;;;;;5.38;1.80;;;6.40;99.90;;;;;;5114520;28;20080;-83
2023/01/31 11:58:51;;;;;;;6.05;1.25;;;6.30;99.90;;;;;;5123625;28;20074;-83
2023/01/31 12:01:21;;;;;;;4.05;1.30;;;6.40;99.90;;;;;;5123447;28;20068;-82
2023/01/31 12:04:00;;;;;;;7.68;1.58;;;6.40;99.90;;;;;;5118911;28;20327;-83
2023/01/31 12:06:33;;;;;;;7.35;1.50;;;6.40;99.90;;;;;;5098102;28;20038;-83
2023/01/31 12:09:02;;;;;;;7.88;1.08;;;6.40;99.90;;;;;;5118879;28;20036;-83
2023/01/31 12:11:31;;;;;;;10.98;1.67;;;6.50;99.90;;;;;;5102853;28;20036;-83
2023/01/31 12:14:18;;;;;;;14.30;1.70;;;6.50;99.90;;;;;;5124288;28;20092;-82
2023/01/31 12:16:45;;;;;;;;;;;6.50;99.90;;;;;;5108982;28;20116;-83
2023/01/31 12:19:12;;;;;;;7.47;1.70;;;6.60;99.90;;;;;;5125704;28;19920;-83
2023/01/31 12:22:14;;;;;;;7.53;1.45;;;6.60;99.90;;;;;;5118139;28;20512;-83
2023/01/31 12:25:06;;;;;;;5.05;1.38;;;6.60;99.90;;;;;;5139684;28;20032;-83
2023/01/31 12:28:00;;;;;;;12.35;1.75;;;6.70;99.90;;;;;;5093307;28;20036;-83
2023/01/31 12:31:01;;;;;;;5.43;1.20;;;6.80;99.90;;;;;;5108909;28;20138;-83
2023/01/31 12:33:31;;;;;;;12.23;1.33;;;6.80;99.90;;;;;;5125520;28;20039;-83
2023/01/31 12:36:19;;;;;;;10.10;2.13;;;6.80;99.90;;;;;;5125396;28;20048;-83
2023/01/31 12:39:21;;;;;;;9.88;1.58;;;6.80;99.90;;;;;;5105375;28;20451;-83
2023/01/31 12:42:12;;;;;;;9.50;1.75;;;6.80;99.90;;;;;;5113768;28;20121;-82
2023/01/31 12:44:56;;;;;;;11.85;2.03;;;6.90;99.90;;;;;;5122136;28;20035;-83
2023/01/31 12:47:58;;;;;;;12.60;2.15;;;7.00;99.90;;;;;;5103846;28;20028;-83
2023/01/31 12:50:32;;;;;;;8.35;1.73;;;7.10;99.90;;;;;;5096634;28;20040;-83
2023/01/31 12:53:19;;;;;;;6.97;1.88;;;7.10;99.90;;;;;;5116817;28;20465;-83
2023/01/31 12:56:07;;;;;;;13.02;1.80;;;7.10;99.90;;;;;;5097560;28;20473;-83
2023/01/31 12:58:41;;;;;;;10.18;1.85;;;7.10;99.90;;;;;;5114699;28;20114;-85
2023/01/31 13:01:21;;;;;;;10.77;1.77;;;7.20;99.90;;;;;;5112208;28;20040;-82
2023/01/31 13:04:10;;;;;;;8.52;1.50;;;7.20;99.90;;;;;;5114899;28;20134;-82
2023/01/31 13:06:42;;;;;;;7.47;1.60;;;7.30;99.90;;;;;;5101307;28;20582;-82
2023/01/31 13:09:22;;;;;;;8.38;2.83;;;7.30;99.90;;;;;;5121686;28;20043;-82
2023/01/31 13:11:56;;;;;;;9.00;1.77;;;7.30;99.90;;;;;;5098417;28;20480;-81
2023/01/31 13:14:28;;;;;;;4.05;1.40;;;7.30;99.90;;;;;;5122598;28;20074;-81
2023/01/31 13:16:59;;;;;;;5.82;1.42;;;7.40;99.90;;;;;;5112828;28;20063;-81
2023/01/31 13:19:32;;;;;;;10.27;1.35;;;7.40;99.90;;;;;;5115205;28;20052;-81
2023/01/31 13:22:04;;;;;;;6.65;2.00;;;7.40;99.90;;;;;;5118503;28;20036;-83
2023/01/31 13:24:36;;;;;;;11.80;1.83;;;7.40;99.90;;;;;;5107421;28;20036;-82
2023/01/31 13:27:22;;;;;;;7.88;1.65;;;7.40;99.90;;;;;;5124649;28;20086;-81
2023/01/31 13:29:56;;;;;;;7.80;1.55;;;7.50;99.90;;;;;;5123572;28;20040;-82